Blue River (Oklahoma), Connerville (07332390)

StateOklahomaCurrentPotential (72 cfs)
RiverBlue RiverFlood - The river is flooding. Obstacles can be treacherous or deadly. The river should be avoided at this stage for casual trips and definitely for the inexperienced. Trips should be attempted only with protective gear and equipment.Flood(none)
Updated2019-10-14 2:45 (53 minutes ago)High - The river is high and potentially dangerous, especially for the young and / or inexperienced. Normal stream obstacles are sometimes difficult to navigate. Extended distances can be attempted, but canoe travel may not be advisable.High400
Discharge72 cfs (median: 41 cfs)Good - Conditions are ideal for a canoe or kayak. Boats typically will drag on fewer than one-quarter of riffles, if at all, and portages are unnecessary or rare. Normal float lengths can be attempted without a problem.Good80
Height5.76 feetLow - River is low but can still be floated. Some riffles are okay but most come with significant dragging and might need a portage. Float lengths should be reduced to accommodate low flow, dragging, and portages.Low(none)
TrendFalling (rising over 24 hours)Poor - River is too low to float comfortably. Most or all riffles will drag or must be portaged and some obstacles (such as slick shelf rock) cause undue problems. Avoid the river at this stage for casual paddling trips.Poor(none)
USGSExternal icon USGS Site for Connerville (07332390)LocationExternal icon Google Maps

Trending Data

Plot Image
ObservationHeightDischargeMaximum
Discharge
Minimum
Discharge
Mean
Discharge
P05P10P20P25P50
(Median)
P75P80P90P95
2019-10-14 02:45 5.76 72 367 (2010) 25 (2007) 59 27 33 35 41 50 53 94
2019-10-14 01:45 5.77 75 367 (2010) 25 (2007) 59 27 33 35 41 50 53 94
2019-10-14 00:45 5.77 75 367 (2010) 25 (2007) 59 27 33 35 41 50 53 94
2019-10-13 23:45 5.77 75 393 (2010) 25 (2007) 62 27 32 34 41 55 60 97
2019-10-13 22:45 5.77 75 393 (2010) 25 (2007) 62 27 32 34 41 55 60 97
2019-10-13 21:45 5.76 72 393 (2010) 25 (2007) 62 27 32 34 41 55 60 97
2019-10-13 20:45 5.76 72 393 (2010) 25 (2007) 62 27 32 34 41 55 60 97
2019-10-13 19:45 5.77 75 393 (2010) 25 (2007) 62 27 32 34 41 55 60 97
2019-10-13 18:45 5.76 72 393 (2010) 25 (2007) 62 27 32 34 41 55 60 97
2019-10-13 17:45 5.76 72 393 (2010) 25 (2007) 62 27 32 34 41 55 60 97
2019-10-13 16:45 5.76 72 393 (2010) 25 (2007) 62 27 32 34 41 55 60 97
2019-10-13 15:45 5.76 72 393 (2010) 25 (2007) 62 27 32 34 41 55 60 97
2019-10-13 14:45 5.76 72 393 (2010) 25 (2007) 62 27 32 34 41 55 60 97
2019-10-13 13:45 5.75 70 393 (2010) 25 (2007) 62 27 32 34 41 55 60 97
2019-10-13 12:45 5.75 70 393 (2010) 25 (2007) 62 27 32 34 41 55 60 97
2019-10-13 11:45 5.75 70 393 (2010) 25 (2007) 62 27 32 34 41 55 60 97
2019-10-13 10:45 5.75 70 393 (2010) 25 (2007) 62 27 32 34 41 55 60 97
2019-10-13 09:45 5.75 70 393 (2010) 25 (2007) 62 27 32 34 41 55 60 97
2019-10-13 08:45 5.75 70 393 (2010) 25 (2007) 62 27 32 34 41 55 60 97
2019-10-13 07:45 5.75 70 393 (2010) 25 (2007) 62 27 32 34 41 55 60 97
2019-10-13 06:45 5.74 67 393 (2010) 25 (2007) 62 27 32 34 41 55 60 97
2019-10-13 05:45 5.74 67 393 (2010) 25 (2007) 62 27 32 34 41 55 60 97
2019-10-13 04:45 5.74 67 393 (2010) 25 (2007) 62 27 32 34 41 55 60 97
2019-10-13 03:45 5.74 67 393 (2010) 25 (2007) 62 27 32 34 41 55 60 97
2019-10-13 02:45 5.74 67 393 (2010) 25 (2007) 62 27 32 34 41 55 60 97
2019-10-13 01:45 5.74 67 393 (2010) 25 (2007) 62 27 32 34 41 55 60 97
2019-10-13 00:45 5.74 67 393 (2010) 25 (2007) 62 27 32 34 41 55 60 97
2019-10-12 23:45 5.74 67 408 (2010) 24 (2007) 69 26 29 33 40 55 60 215
2019-10-12 22:45 5.74 67 408 (2010) 24 (2007) 69 26 29 33 40 55 60 215
2019-10-12 21:45 5.74 67 408 (2010) 24 (2007) 69 26 29 33 40 55 60 215
2019-10-12 20:45 5.74 67 408 (2010) 24 (2007) 69 26 29 33 40 55 60 215
2019-10-12 19:45 5.74 67 408 (2010) 24 (2007) 69 26 29 33 40 55 60 215
2019-10-12 18:45 5.74 67 408 (2010) 24 (2007) 69 26 29 33 40 55 60 215
2019-10-12 17:45 5.74 67 408 (2010) 24 (2007) 69 26 29 33 40 55 60 215
2019-10-12 16:45 5.75 70 408 (2010) 24 (2007) 69 26 29 33 40 55 60 215
2019-10-12 15:45 5.74 67 408 (2010) 24 (2007) 69 26 29 33 40 55 60 215
2019-10-12 14:45 5.74 67 408 (2010) 24 (2007) 69 26 29 33 40 55 60 215
2019-10-12 13:45 5.75 70 408 (2010) 24 (2007) 69 26 29 33 40 55 60 215
2019-10-12 12:45 5.75 70 408 (2010) 24 (2007) 69 26 29 33 40 55 60 215
2019-10-12 11:45 5.75 70 408 (2010) 24 (2007) 69 26 29 33 40 55 60 215
2019-10-12 10:45 5.75 70 408 (2010) 24 (2007) 69 26 29 33 40 55 60 215
2019-10-12 09:45 5.75 70 408 (2010) 24 (2007) 69 26 29 33 40 55 60 215
2019-10-12 08:45 5.75 70 408 (2010) 24 (2007) 69 26 29 33 40 55 60 215
2019-10-12 07:45 5.75 70 408 (2010) 24 (2007) 69 26 29 33 40 55 60 215
2019-10-12 06:45 5.75 70 408 (2010) 24 (2007) 69 26 29 33 40 55 60 215
2019-10-12 05:45 5.75 70 408 (2010) 24 (2007) 69 26 29 33 40 55 60 215
2019-10-12 04:45 5.76 72 408 (2010) 24 (2007) 69 26 29 33 40 55 60 215
2019-10-12 03:45 5.76 72 408 (2010) 24 (2007) 69 26 29 33 40 55 60 215
2019-10-12 02:45 5.76 72 408 (2010) 24 (2007) 69 26 29 33 40 55 60 215
2019-10-12 01:45 5.76 72 408 (2010) 24 (2007) 69 26 29 33 40 55 60 215
2019-10-12 00:45 5.76 72 408 (2010) 24 (2007) 69 26 29 33 40 55 60 215
2019-10-11 23:45 5.77 75 800 (2010) 26 (2007) 110 27 34 34 40 55 60 536
2019-10-11 22:45 5.77 75 800 (2010) 26 (2007) 110 27 34 34 40 55 60 536
2019-10-11 21:45 5.77 75 800 (2010) 26 (2007) 110 27 34 34 40 55 60 536
2019-10-11 20:45 5.78 78 800 (2010) 26 (2007) 110 27 34 34 40 55 60 536
2019-10-11 19:45 5.78 78 800 (2010) 26 (2007) 110 27 34 34 40 55 60 536
2019-10-11 18:45 5.79 81 800 (2010) 26 (2007) 110 27 34 34 40 55 60 536
2019-10-11 17:45 5.79 81 800 (2010) 26 (2007) 110 27 34 34 40 55 60 536
2019-10-11 16:45 5.80 84 800 (2010) 26 (2007) 110 27 34 34 40 55 60 536
2019-10-11 15:45 5.81 86 800 (2010) 26 (2007) 110 27 34 34 40 55 60 536
2019-10-11 14:45 5.81 86 800 (2010) 26 (2007) 110 27 34 34 40 55 60 536
2019-10-11 13:45 5.81 86 800 (2010) 26 (2007) 110 27 34 34 40 55 60 536
2019-10-11 12:45 5.82 89 800 (2010) 26 (2007) 110 27 34 34 40 55 60 536
2019-10-11 11:45 5.81 86 800 (2010) 26 (2007) 110 27 34 34 40 55 60 536
2019-10-11 10:45 5.81 86 800 (2010) 26 (2007) 110 27 34 34 40 55 60 536
2019-10-11 09:45 5.80 84 800 (2010) 26 (2007) 110 27 34 34 40 55 60 536
2019-10-11 08:45 5.79 81 800 (2010) 26 (2007) 110 27 34 34 40 55 60 536
2019-10-11 07:45 5.78 78 800 (2010) 26 (2007) 110 27 34 34 40 55 60 536
2019-10-11 06:45 5.78 78 800 (2010) 26 (2007) 110 27 34 34 40 55 60 536
2019-10-11 05:45 5.79 81 800 (2010) 26 (2007) 110 27 34 34 40 55 60 536
2019-10-11 04:45 5.79 81 800 (2010) 26 (2007) 110 27 34 34 40 55 60 536
2019-10-11 03:45 5.80 84 800 (2010) 26 (2007) 110 27 34 34 40 55 60 536
2019-10-11 02:45 5.79 81 800 (2010) 26 (2007) 110 27 34 34 40 55 60 536
2019-10-11 01:45 5.81 86 800 (2010) 26 (2007) 110 27 34 34 40 55 60 536
2019-10-11 00:45 5.79 81 800 (2010) 26 (2007) 110 27 34 34 40 55 60 536
2019-10-10 23:45 5.81 86 2200 (2010) 25 (2007) 163 27 29 33 40 55 60 290
2019-10-10 22:45 5.82 89 2200 (2010) 25 (2007) 163 27 29 33 40 55 60 290
2019-10-10 21:45 5.82 89 2200 (2010) 25 (2007) 163 27 29 33 40 55 60 290
2019-10-10 20:45 5.81 86 2200 (2010) 25 (2007) 163 27 29 33 40 55 60 290
2019-10-10 19:45 5.81 86 2200 (2010) 25 (2007) 163 27 29 33 40 55 60 290
2019-10-10 18:45 5.81 86 2200 (2010) 25 (2007) 163 27 29 33 40 55 60 290
2019-10-10 17:45 5.80 84 2200 (2010) 25 (2007) 163 27 29 33 40 55 60 290
2019-10-10 16:45 5.77 68 2200 (2010) 25 (2007) 163 27 29 33 40 55 60 290
2019-10-10 15:45 5.75 63 2200 (2010) 25 (2007) 163 27 29 33 40 55 60 290
2019-10-10 14:45 5.75 63 2200 (2010) 25 (2007) 163 27 29 33 40 55 60 290
2019-10-10 13:45 5.75 63 2200 (2010) 25 (2007) 163 27 29 33 40 55 60 290
2019-10-10 12:45 5.75 63 2200 (2010) 25 (2007) 163 27 29 33 40 55 60 290
2019-10-10 11:45 5.75 63 2200 (2010) 25 (2007) 163 27 29 33 40 55 60 290
2019-10-10 10:45 5.75 63 2200 (2010) 25 (2007) 163 27 29 33 40 55 60 290
2019-10-10 09:45 5.75 63 2200 (2010) 25 (2007) 163 27 29 33 40 55 60 290
2019-10-10 08:45 5.75 63 2200 (2010) 25 (2007) 163 27 29 33 40 55 60 290
2019-10-10 07:45 5.75 63 2200 (2010) 25 (2007) 163 27 29 33 40 55 60 290
2019-10-10 06:45 5.75 63 2200 (2010) 25 (2007) 163 27 29 33 40 55 60 290
2019-10-10 05:45 5.74 60 2200 (2010) 25 (2007) 163 27 29 33 40 55 60 290
2019-10-10 04:45 5.75 63 2200 (2010) 25 (2007) 163 27 29 33 40 55 60 290
2019-10-10 03:45 5.75 63 2200 (2010) 25 (2007) 163 27 29 33 40 55 60 290
2019-10-10 02:45 5.75 63 2200 (2010) 25 (2007) 163 27 29 33 40 55 60 290
2019-10-10 01:45 5.75 63 2200 (2010) 25 (2007) 163 27 29 33 40 55 60 290
2019-10-10 00:45 5.75 63 2200 (2010) 25 (2007) 163 27 29 33 40 55 60 290
2019-10-09 23:45 5.75 63 4500 (2010) 24 (2007) 289 26 28 33 41 53 55 512
2019-10-09 22:45 5.74 60 4500 (2010) 24 (2007) 289 26 28 33 41 53 55 512
2019-10-09 21:45 5.74 60 4500 (2010) 24 (2007) 289 26 28 33 41 53 55 512
2019-10-09 20:45 5.74 60 4500 (2010) 24 (2007) 289 26 28 33 41 53 55 512
2019-10-09 19:45 5.74 60 4500 (2010) 24 (2007) 289 26 28 33 41 53 55 512
2019-10-09 18:45 5.74 60 4500 (2010) 24 (2007) 289 26 28 33 41 53 55 512
2019-10-09 17:45 5.75 63 4500 (2010) 24 (2007) 289 26 28 33 41 53 55 512
2019-10-09 16:45 5.74 60 4500 (2010) 24 (2007) 289 26 28 33 41 53 55 512
2019-10-09 15:45 5.74 60 4500 (2010) 24 (2007) 289 26 28 33 41 53 55 512
2019-10-09 14:45 5.74 60 4500 (2010) 24 (2007) 289 26 28 33 41 53 55 512
2019-10-09 13:45 5.74 60 4500 (2010) 24 (2007) 289 26 28 33 41 53 55 512
2019-10-09 12:45 5.74 60 4500 (2010) 24 (2007) 289 26 28 33 41 53 55 512
2019-10-09 11:45 5.74 60 4500 (2010) 24 (2007) 289 26 28 33 41 53 55 512
2019-10-09 10:45 5.74 60 4500 (2010) 24 (2007) 289 26 28 33 41 53 55 512
2019-10-09 09:45 5.74 60 4500 (2010) 24 (2007) 289 26 28 33 41 53 55 512
2019-10-09 08:45 5.74 60 4500 (2010) 24 (2007) 289 26 28 33 41 53 55 512
2019-10-09 07:45 5.74 60 4500 (2010) 24 (2007) 289 26 28 33 41 53 55 512
2019-10-09 06:45 5.74 60 4500 (2010) 24 (2007) 289 26 28 33 41 53 55 512
2019-10-09 05:45 5.74 60 4500 (2010) 24 (2007) 289 26 28 33 41 53 55 512
2019-10-09 04:45 5.74 60 4500 (2010) 24 (2007) 289 26 28 33 41 53 55 512
2019-10-09 03:45 5.74 60 4500 (2010) 24 (2007) 289 26 28 33 41 53 55 512
2019-10-09 02:45 5.74 60 4500 (2010) 24 (2007) 289 26 28 33 41 53 55 512
2019-10-09 01:45 5.74 60 4500 (2010) 24 (2007) 289 26 28 33 41 53 55 512
2019-10-09 00:45 5.74 60 4500 (2010) 24 (2007) 289 26 28 33 41 53 55 512
2019-10-08 23:45 5.74 60 427 (2010) 23 (2007) 62 26 28 31 40 54 56 107
2019-10-08 22:45 5.74 60 427 (2010) 23 (2007) 62 26 28 31 40 54 56 107
2019-10-08 21:45 5.74 60 427 (2010) 23 (2007) 62 26 28 31 40 54 56 107
2019-10-08 20:45 5.74 60 427 (2010) 23 (2007) 62 26 28 31 40 54 56 107
2019-10-08 19:45 5.74 60 427 (2010) 23 (2007) 62 26 28 31 40 54 56 107
2019-10-08 18:45 5.74 60 427 (2010) 23 (2007) 62 26 28 31 40 54 56 107
2019-10-08 17:45 5.74 60 427 (2010) 23 (2007) 62 26 28 31 40 54 56 107
2019-10-08 16:45 5.74 60 427 (2010) 23 (2007) 62 26 28 31 40 54 56 107
2019-10-08 15:45 5.74 60 427 (2010) 23 (2007) 62 26 28 31 40 54 56 107
2019-10-08 14:45 5.74 60 427 (2010) 23 (2007) 62 26 28 31 40 54 56 107
2019-10-08 13:45 5.74 60 427 (2010) 23 (2007) 62 26 28 31 40 54 56 107
2019-10-08 12:45 5.74 60 427 (2010) 23 (2007) 62 26 28 31 40 54 56 107
2019-10-08 11:45 5.74 60 427 (2010) 23 (2007) 62 26 28 31 40 54 56 107
2019-10-08 10:45 5.74 60 427 (2010) 23 (2007) 62 26 28 31 40 54 56 107
2019-10-08 09:45 5.74 60 427 (2010) 23 (2007) 62 26 28 31 40 54 56 107
2019-10-08 08:45 5.74 60 427 (2010) 23 (2007) 62 26 28 31 40 54 56 107
2019-10-08 07:45 5.74 60 427 (2010) 23 (2007) 62 26 28 31 40 54 56 107
2019-10-08 06:45 5.74 60 427 (2010) 23 (2007) 62 26 28 31 40 54 56 107
2019-10-08 05:45 5.74 60 427 (2010) 23 (2007) 62 26 28 31 40 54 56 107
2019-10-08 04:45 5.74 60 427 (2010) 23 (2007) 62 26 28 31 40 54 56 107
2019-10-08 03:45 5.74 60 427 (2010) 23 (2007) 62 26 28 31 40 54 56 107
2019-10-08 02:45 5.74 60 427 (2010) 23 (2007) 62 26 28 31 40 54 56 107
2019-10-08 01:45 5.74 60 427 (2010) 23 (2007) 62 26 28 31 40 54 56 107
2019-10-08 00:45 5.74 60 427 (2010) 23 (2007) 62 26 28 31 40 54 56 107
2019-10-07 23:45 5.75 63 300 (2010) 23 (2007) 57 26 28 32 41 57 61 96
2019-10-07 22:45 5.75 63 300 (2010) 23 (2007) 57 26 28 32 41 57 61 96
2019-10-07 21:45 5.75 63 300 (2010) 23 (2007) 57 26 28 32 41 57 61 96
2019-10-07 20:45 5.75 63 300 (2010) 23 (2007) 57 26 28 32 41 57 61 96
2019-10-07 19:45 5.76 65 300 (2010) 23 (2007) 57 26 28 32 41 57 61 96
2019-10-07 18:45 5.75 63 300 (2010) 23 (2007) 57 26 28 32 41 57 61 96
2019-10-07 17:45 5.75 63 300 (2010) 23 (2007) 57 26 28 32 41 57 61 96
2019-10-07 16:45 5.75 63 300 (2010) 23 (2007) 57 26 28 32 41 57 61 96
2019-10-07 15:45 5.75 63 300 (2010) 23 (2007) 57 26 28 32 41 57 61 96
2019-10-07 14:45 5.74 60 300 (2010) 23 (2007) 57 26 28 32 41 57 61 96
2019-10-07 13:45 5.74 60 300 (2010) 23 (2007) 57 26 28 32 41 57 61 96
2019-10-07 12:45 5.74 60 300 (2010) 23 (2007) 57 26 28 32 41 57 61 96
2019-10-07 11:45 5.75 63 300 (2010) 23 (2007) 57 26 28 32 41 57 61 96
2019-10-07 10:45 5.74 60 300 (2010) 23 (2007) 57 26 28 32 41 57 61 96
2019-10-07 09:45 5.75 63 300 (2010) 23 (2007) 57 26 28 32 41 57 61 96
2019-10-07 08:45 5.75 63 300 (2010) 23 (2007) 57 26 28 32 41 57 61 96
2019-10-07 07:45 5.75 63 300 (2010) 23 (2007) 57 26 28 32 41 57 61 96
2019-10-07 06:45 5.74 60 300 (2010) 23 (2007) 57 26 28 32 41 57 61 96
2019-10-07 05:45 5.74 60 300 (2010) 23 (2007) 57 26 28 32 41 57 61 96
2019-10-07 04:45 5.74 60 300 (2010) 23 (2007) 57 26 28 32 41 57 61 96
2019-10-07 03:45 5.74 60 300 (2010) 23 (2007) 57 26 28 32 41 57 61 96
2019-10-07 02:45 5.74 60 300 (2010) 23 (2007) 57 26 28 32 41 57 61 96
2019-10-07 01:45 5.74 60 300 (2010) 23 (2007) 57 26 28 32 41 57 61 96
2019-10-07 00:45 5.75 63 300 (2010) 23 (2007) 57 26 28 32 41 57 61 96

A total of 171 rows are displayed for years 1977 through 2018.

Trips for Blue River (Oklahoma), Connerville (07332390)

DateStartEndDistanceConditionDischargeHeightFishingDetails
Click for details2013-06-06 Harris Ranch Road Coatsworth Road Total trip distance: 4.5 miles4.5 High 819 7.45 None NoneNone Fillmore, Brian
Ligon, Day
Moore, Dan
Jarod
Fillmore, Brian; Ligon, Day; Moore, Dan; Jarod
No notes for this trip<i>No notes for this trip</i> USGS Gauge Data:
Connerville (07332390)
Discharge: 819
Height: 7.45
<b>USGS Gauge Data:</b></br />Connerville (07332390)<br />Discharge: 819<br />Height: 7.45
Source: FillmoreSource: Fillmore
Click for details2015-07-17 US 377 Coatsworth Road Total trip distance: 5.7 miles5.7 Good 302 6.45 Great KSB
LSB
SMB
KSB, LSB, SMB
Fillmore, Brian
Fillmore, Rebecca
Ligon, Day
Spangler, S
Thompson, Denise
Fillmore, Brian; Fillmore, Rebecca; Ligon, Day; Spangler, S; Thompson, Denise
No notes for this trip<i>No notes for this trip</i> USGS Gauge Data:
Connerville (07332390)
Discharge: 302
Height: 6.45
<b>USGS Gauge Data:</b></br />Connerville (07332390)<br />Discharge: 302<br />Height: 6.45
Source: FillmoreSource: Fillmore
Click for details2016-03-16 US 377 Harris Ranch Road Total trip distance: 1.2 miles1.2 Good 225 6.23 Fair KSB
LMB
SMB
KSB, LMB, SMB
Fillmore, Brian
Gallegos, Daniel
Smith, Matt
Fillmore, Brian; Gallegos, Daniel; Smith, Matt
No notes for this trip<i>No notes for this trip</i> USGS Gauge Data:
Connerville (07332390)
Discharge: 225
Height: 6.23
<b>USGS Gauge Data:</b></br />Connerville (07332390)<br />Discharge: 225<br />Height: 6.23
Source: FillmoreSource: Fillmore
Click for details2015-07-28 US 377 Harris Ranch Road Total trip distance: 1.2 miles1.2 Good 221 6.23 Fair LMB
SMB
LMB, SMB
Fillmore, Brian
Hefner, Reagan
Fillmore, Brian; Hefner, Reagan
No notes for this trip<i>No notes for this trip</i> USGS Gauge Data:
Connerville (07332390)
Discharge: 221
Height: 6.23
<b>USGS Gauge Data:</b></br />Connerville (07332390)<br />Discharge: 221<br />Height: 6.23
Source: FillmoreSource: Fillmore
Click for details2015-08-04 Harris Ranch Road Coatsworth Road Total trip distance: 4.5 miles4.5 Good 190 6.14 Great KSB
LMB
SMB
KSB, LMB, SMB
Fillmore, Brian
LeDoux, Brandon
Fillmore, Brian; LeDoux, Brandon
No notes for this trip<i>No notes for this trip</i> USGS Gauge Data:
Connerville (07332390)
Discharge: 190
Height: 6.14
<b>USGS Gauge Data:</b></br />Connerville (07332390)<br />Discharge: 190<br />Height: 6.14
Source: FillmoreSource: Fillmore
Click for details2016-07-01 US 377 Coatsworth Road Total trip distance: 5.7 miles5.7 Good 178 6.04 Excellent SMB
LMB
KSB
GSF
SMB, LMB, KSB, GSF
Edmond, Brian
Fillmore, Rebecca
Fillmore, Brian
Hallmark, Larissa
Ligon, Day
Ligon, Guerdon
Sardina, Krissy
Thompson, Denise
Van Someren, Tom
Edmond, Brian; Fillmore, Rebecca; Fillmore, Brian; Hallmark, Larissa; Ligon, Day; Ligon, Guerdon; Sardina, Krissy; Thompson, Denise; Van Someren, Tom
This stretch had several challenging rapids. The flow was pretty good but several times, we got stuck on the bedrock and had to scoot through or pull the boats out. Fishing was obviously great, but more water would have made this a more exciting kayaking adventure.This stretch had several challenging rapids. The flow was pretty good but several times, we got stuck on the bedrock and had to scoot through or pull the boats out. Fishing was obviously great, but more water would have made this a more exciting kayaking adventure. USGS Gauge Data:
Connerville (07332390)
Discharge: 178
Height: 6.04
<b>USGS Gauge Data:</b></br />Connerville (07332390)<br />Discharge: 178<br />Height: 6.04
Source: EdmondSource: Edmond
Click for details2016-07-04 Harris Ranch Road Coatsworth Road Total trip distance: 4.5 miles4.5 Good 163 6.01 Excellent LMB
KSB
SMB
LSF
LMB, KSB, SMB, LSF
Fillmore, Brian
Fillmore, Rebecca
Fillmore, Brian; Fillmore, Rebecca
From Brian Fillmore: We had so much fun on the Blue with you guys. Rebecca and I went back on July 4th. I landed 50 bass that day, one of my best days ever!From Brian Fillmore: We had so much fun on the Blue with you guys. Rebecca and I went back on July 4th. I landed 50 bass that day, one of my best days ever! USGS Gauge Data:
Connerville (07332390)
Discharge: 163
Height: 6.01
<b>USGS Gauge Data:</b></br />Connerville (07332390)<br />Discharge: 163<br />Height: 6.01
Source: FillmoreSource: Fillmore
Click for details2018-05-12 US 377 Coatsworth Road Total trip distance: 5.7 miles5.7 Good 156 6.06 Good KSB
LMB
SMB
KSB, LMB, SMB
Fillmore, Brian
White, Aaron
White, Arik
Fillmore, Brian; White, Aaron; White, Arik
No notes for this trip<i>No notes for this trip</i> USGS Gauge Data:
Connerville (07332390)
Discharge: 156
Height: 6.06
<b>USGS Gauge Data:</b></br />Connerville (07332390)<br />Discharge: 156<br />Height: 6.06
Source: FillmoreSource: Fillmore
Click for details2016-07-08 Harris Ranch Road Coatsworth Road Total trip distance: 4.5 miles4.5 Good 144 5.97 Great LMB
KSB
SMB
LMB, KSB, SMB
Fillmore, Brian
Fillmore, Rebecca
Sardina, Krissy
Spangler, Sarah
Fillmore, Brian; Fillmore, Rebecca; Sardina, Krissy; Spangler, Sarah
From Brian Fillmore: Only 20 bass today for me but everyone caught fish so it was a great time.From Brian Fillmore: Only 20 bass today for me but everyone caught fish so it was a great time. USGS Gauge Data:
Connerville (07332390)
Discharge: 144
Height: 5.97
<b>USGS Gauge Data:</b></br />Connerville (07332390)<br />Discharge: 144<br />Height: 5.97
Source: FillmoreSource: Fillmore
Click for details2018-04-20 Harris Ranch Road Coatsworth Road Total trip distance: 4.5 miles4.5 Good 137 5.90 Great KSB
LMB
SMB
KSB, LMB, SMB
Fillmore, Brian
Miller, Russ
Fillmore, Brian; Miller, Russ
No notes for this trip<i>No notes for this trip</i> USGS Gauge Data:
Connerville (07332390)
Discharge: 137
Height: 5.90
<b>USGS Gauge Data:</b></br />Connerville (07332390)<br />Discharge: 137<br />Height: 5.90
Source: FillmoreSource: Fillmore
Click for details2016-07-16 Coatsworth Road OK 7 Total trip distance: 6.5 miles6.5 Low 131 5.96 Good KSB
LMB
SMB
KSB, LMB, SMB
Fillmore, Brian
Fillmore, Rebecca
Graves, Alex
Graves, Grant
Hallmark, Larissa
Hefner, Reagan
Fillmore, Brian; Fillmore, Rebecca; Graves, Alex; Graves, Grant; Hallmark, Larissa; Hefner, Reagan
Last part of the float is difficult because of portages over small falls. Last part of the float is difficult because of portages over small falls.
USGS Gauge Data:
Connerville (07332390)
Discharge: 131
Height: 5.96
<b>USGS Gauge Data:</b></br />Connerville (07332390)<br />Discharge: 131<br />Height: 5.96
Source: FillmoreSource: Fillmore
Click for details2016-07-19 US 377 Harris Ranch Road Total trip distance: 1.2 miles1.2 Good 114 5.91 Fair LMB
SMB
GSF
LMB, SMB, GSF
Fillmore, Brian
Lyons, Matt
Fillmore, Brian; Lyons, Matt
Float was good but getting close to low.Float was good but getting close to low. USGS Gauge Data:
Connerville (07332390)
Discharge: 114
Height: 5.91
<b>USGS Gauge Data:</b></br />Connerville (07332390)<br />Discharge: 114<br />Height: 5.91
Source: FillmoreSource: Fillmore
Click for details2012-05-04 OK 22 Durant Dam Total trip distance: 10.1 miles10.1 Good 47 5.65 Good SMB
KSB
CCF
LSF
SMB, KSB, CCF, LSF
Fillmore, Brian
Cooper, Matt
Lewis, Shane
Fillmore, Brian; Cooper, Matt; Lewis, Shane
No notes for this trip<i>No notes for this trip</i> USGS Gauge Data:
Connerville (07332390)
Discharge: 47
Height: 5.65
<b>USGS Gauge Data:</b></br />Connerville (07332390)<br />Discharge: 47<br />Height: 5.65
Source: FillmoreSource: Fillmore
Click for details2014-07-26 Coatsworth Road OK 7 Total trip distance: 6.5 miles6.5 Low 42 5.64 Great SMB
KSB
LMB
SMB, KSB, LMB
Fillmore, Brian
Graves, Grant
Jones, Alex
Fillmore, Brian; Graves, Grant; Jones, Alex
No notes for this trip<i>No notes for this trip</i> USGS Gauge Data:
Connerville (07332390)
Discharge: 42
Height: 5.64
<b>USGS Gauge Data:</b></br />Connerville (07332390)<br />Discharge: 42<br />Height: 5.64
Source: FillmoreSource: Fillmore
Click for details2014-08-17 US 377 Coatsworth Road Total trip distance: 5.7 miles5.7 Low 40 5.62 Great SMB
KSB
LMB
SMB, KSB, LMB
Fillmore, Brian
Fillmore, Rebecca
Fillmore, Brian; Fillmore, Rebecca
No notes for this trip<i>No notes for this trip</i> USGS Gauge Data:
Connerville (07332390)
Discharge: 40
Height: 5.62
<b>USGS Gauge Data:</b></br />Connerville (07332390)<br />Discharge: 40<br />Height: 5.62
Source: FillmoreSource: Fillmore
Click for details2014-07-12 Coatsworth Road OK 7 Total trip distance: 6.5 miles6.5 Low 38 5.61 Great KSB
LMB
SMB
KSB, LMB, SMB
Fillmore, Brian
Gastineau, Kyler
Jackson, Antonio
White, Aaron
Fillmore, Brian; Gastineau, Kyler; Jackson, Antonio; White, Aaron
No notes for this trip<i>No notes for this trip</i> USGS Gauge Data:
Connerville (07332390)
Discharge: 38
Height: 5.61
<b>USGS Gauge Data:</b></br />Connerville (07332390)<br />Discharge: 38<br />Height: 5.61
Source: FillmoreSource: Fillmore
Click for details2006-07-15 OK 7 Hughes Crossing Total trip distance: 4.0 miles4.0 Low 35 Excellent KSB
SMB
LMB
KSB,SMB,LMB
Fillmore, Brian
Graves, Grant
Munn, Casey
Fillmore, Brian; Graves, Grant; Munn, Casey
Many small waterfalls must be portaged. Tough float but worth it for the fishing.Many small waterfalls must be portaged. Tough float but worth it for the fishing. USGS Gauge Data:
Connerville (07332390)
Discharge: 35
Height:
<b>USGS Gauge Data:</b></br />Connerville (07332390)<br />Discharge: 35<br />Height:
Source: FillmoreSource: Fillmore
Click for details2014-08-23 Cheadle Rd OK 48 Total trip distance: 3.8 miles3.8 Good 34 5.59 Great SMB
KSB
CCF
LSF
SMB, KSB, CCF, LSF
Fillmore, Brian
Simmons, Ralph
Fillmore, Brian; Simmons, Ralph
No notes for this trip<i>No notes for this trip</i> USGS Gauge Data:
Connerville (07332390)
Discharge: 34
Height: 5.59
<b>USGS Gauge Data:</b></br />Connerville (07332390)<br />Discharge: 34<br />Height: 5.59
Source: FillmoreSource: Fillmore
Click for details2014-10-19 US 377 Harris Ranch Road Total trip distance: 1.2 miles1.2 Low 26 5.53 Good SMB
LMB
KSB
SMB, LMB, KSB
Fillmore, Brian
Fillmore, Rebecca
Fillmore, Brian; Fillmore, Rebecca
No notes for this trip<i>No notes for this trip</i> USGS Gauge Data:
Connerville (07332390)
Discharge: 26
Height: 5.53
<b>USGS Gauge Data:</b></br />Connerville (07332390)<br />Discharge: 26<br />Height: 5.53
Source: FillmoreSource: Fillmore
Click for details2014-10-21 US 377 Harris Ranch Road Total trip distance: 1.2 miles1.2 Low 25 5.52 Good SMB
LMB
GSF
SMB, LMB, GSF
Fillmore, Brian
Oliver, Scott
Fillmore, Brian; Oliver, Scott
No notes for this trip<i>No notes for this trip</i> USGS Gauge Data:
Connerville (07332390)
Discharge: 25
Height: 5.52
<b>USGS Gauge Data:</b></br />Connerville (07332390)<br />Discharge: 25<br />Height: 5.52
Source: FillmoreSource: Fillmore

A total of 20 rows are displayed.

Trip Summary for Blue River (Oklahoma), Connerville (07332390)

Miles88.7
Trips20
People31
Dates20
Years7
Months7
Rows20
Sources2

Condition Descriptions

Fishing Conditions

Fish Species

Notes

Classic Trip List

The classic River Trips application is still available for use. It is updated with the new system using a data retrofit. It is no longer maintained. The original River Trips application is no longer updated (as of 1 Dec 2016) but can be checked for errors or for the condition of the data before it was converted to the new system.